Belleview, Kentucky
Current Conditions -  °F | °C
As of 12:52 PM on Sunday 25 Jan 2015 (Local Time) from KCVG Reporting Station
Light Rain Light Rain  
Wind Chill: 36°   Ceiling: 5500
Heat Index: 41°   Visibility: 10mi
Dew Point: 34°   Wind: 7mph
Humidity: 76%   Direction: 140°SE
Pressure: 29.69"   Gusts: NA
Location:  39.0238°N, 84.7647°W
Report Text: KCVG 251752Z 14006KT 10SM -RA BKN055 OVC065 05/01 A2969 RMK AO2 RAB10 SLP057 P0001 60001 T00500011 10050 20022 58009
Loading
Personal Weather Stations






























Interactive Weather Map New forecast layout! Learn more

10-Day Weather Forecast

Advertisements
Track Severe Weather on mobile